createdAt,value
2019-03-24T00:00:44.941Z,3.30
2019-03-24T00:03:15.370Z,3.30
2019-03-24T00:05:45.862Z,3.20
2019-03-24T00:08:16.393Z,3.20
2019-03-24T00:10:46.793Z,3.10
2019-03-24T00:13:17.146Z,3.10
2019-03-24T00:15:47.504Z,3.00
2019-03-24T00:18:17.918Z,3.00
2019-03-24T00:20:48.240Z,3.00
2019-03-24T00:23:18.668Z,3.10
2019-03-24T00:25:49.146Z,3.10
2019-03-24T00:28:19.597Z,3.10
2019-03-24T00:30:50.627Z,3.10
2019-03-24T00:33:20.908Z,3.10
2019-03-24T00:35:51.400Z,3.10
2019-03-24T00:38:21.849Z,3.00
2019-03-24T00:40:52.379Z,2.90
2019-03-24T00:43:22.767Z,2.90
2019-03-24T00:45:53.128Z,2.80
2019-03-24T00:48:23.529Z,2.80
2019-03-24T00:50:53.783Z,2.80
2019-03-24T00:53:24.227Z,2.80
2019-03-24T00:55:54.719Z,2.80
2019-03-24T00:58:25.184Z,2.70
2019-03-24T01:00:55.698Z,2.70
2019-03-24T01:03:26.096Z,2.70
2019-03-24T01:05:56.539Z,2.70
2019-03-24T01:08:26.990Z,2.70
2019-03-24T01:10:57.561Z,2.70
2019-03-24T01:13:27.989Z,2.60
2019-03-24T01:15:58.301Z,2.60
2019-03-24T01:18:28.792Z,2.60
2019-03-24T01:20:59.113Z,2.50
2019-03-24T01:23:29.667Z,2.50
2019-03-24T01:26:00.172Z,2.40
2019-03-24T01:28:30.528Z,2.40
2019-03-24T01:31:00.956Z,2.40
2019-03-24T01:33:31.396Z,2.40
2019-03-24T01:36:01.748Z,2.30
2019-03-24T01:38:32.215Z,2.30
2019-03-24T01:41:02.687Z,2.30
2019-03-24T01:43:33.204Z,2.20
2019-03-24T01:46:03.520Z,2.20
2019-03-24T01:48:33.885Z,2.10
2019-03-24T01:51:04.194Z,2.10
2019-03-24T01:53:34.631Z,2.00
2019-03-24T01:56:04.986Z,2.00
2019-03-24T01:58:35.382Z,2.00
2019-03-24T02:01:05.894Z,1.90
2019-03-24T02:03:36.330Z,1.90
2019-03-24T02:06:06.781Z,1.90
2019-03-24T02:08:37.250Z,1.90
2019-03-24T02:11:07.772Z,1.90
2019-03-24T02:13:38.132Z,1.80
2019-03-24T02:16:09.569Z,1.80
2019-03-24T02:18:40.624Z,1.80
2019-03-24T02:21:11.258Z,1.70
2019-03-24T02:23:41.620Z,1.70
2019-03-24T02:26:12.040Z,1.70
2019-03-24T02:28:42.439Z,1.70
2019-03-24T02:31:12.839Z,1.60
2019-03-24T02:33:43.319Z,1.60
2019-03-24T02:36:13.796Z,1.60
2019-03-24T02:38:44.125Z,1.50
2019-03-24T02:41:14.520Z,1.50
2019-03-24T02:43:44.982Z,1.50
2019-03-24T02:46:24.254Z,1.50
2019-03-24T02:48:47.550Z,1.40
2019-03-24T02:51:18.201Z,1.40
2019-03-24T02:53:48.597Z,1.40
2019-03-24T02:56:19.100Z,1.40
2019-03-24T02:58:49.545Z,1.40
2019-03-24T03:01:19.980Z,1.30
2019-03-24T03:03:50.481Z,1.30
2019-03-24T03:09:53.308Z,1.20
2019-03-24T03:12:23.784Z,1.20
2019-03-24T03:14:54.201Z,1.30
2019-03-24T03:17:24.618Z,1.30
2019-03-24T03:19:55.788Z,1.20
2019-03-24T03:22:26.182Z,1.20
2019-03-24T03:24:56.580Z,1.20
2019-03-24T03:27:26.984Z,1.20
2019-03-24T03:29:57.453Z,1.10
2019-03-24T03:32:27.841Z,1.10
2019-03-24T03:34:59.230Z,1.10
2019-03-24T03:37:29.732Z,1.20
2019-03-24T03:40:00.725Z,1.20
2019-03-24T03:42:32.106Z,1.20
2019-03-24T03:45:02.549Z,1.20
2019-03-24T03:47:32.861Z,1.20
2019-03-24T03:50:03.245Z,1.20
2019-03-24T03:52:33.693Z,1.20
2019-03-24T03:55:05.054Z,1.20
2019-03-24T03:57:35.478Z,1.20
2019-03-24T04:00:07.233Z,1.20
2019-03-24T04:02:37.871Z,1.10
2019-03-24T04:05:08.534Z,1.20
2019-03-24T04:07:38.962Z,1.20
2019-03-24T04:10:09.608Z,1.20
2019-03-24T04:12:39.874Z,1.20
2019-03-24T04:15:10.414Z,1.10
2019-03-24T04:17:40.960Z,1.10
2019-03-24T04:20:11.445Z,1.10
2019-03-24T04:22:41.742Z,1.10
2019-03-24T04:25:14.085Z,1.10
2019-03-24T04:27:44.550Z,1.00
2019-03-24T04:30:14.990Z,1.10
2019-03-24T04:32:45.427Z,1.10
2019-03-24T04:35:16.176Z,1.00
2019-03-24T04:37:46.772Z,1.00
2019-03-24T04:40:17.138Z,1.00
2019-03-24T04:42:47.494Z,1.00
2019-03-24T04:45:17.909Z,1.10
2019-03-24T04:47:48.303Z,1.10
2019-03-24T04:50:18.679Z,1.10
2019-03-24T04:52:49.281Z,1.10
2019-03-24T04:55:19.692Z,1.20
2019-03-24T04:57:50.040Z,1.30
2019-03-24T05:00:26.736Z,1.30
2019-03-24T05:02:57.240Z,1.30
2019-03-24T05:05:27.580Z,1.40
2019-03-24T05:07:58.004Z,1.40
2019-03-24T05:10:28.659Z,1.40
2019-03-24T05:12:59.127Z,1.40
2019-03-24T05:15:29.528Z,1.50
2019-03-24T05:18:00.131Z,1.50
2019-03-24T05:20:30.553Z,1.50
2019-03-24T05:23:01.103Z,1.50
2019-03-24T05:25:31.588Z,1.50
2019-03-24T05:28:01.805Z,1.50
2019-03-24T05:30:32.318Z,1.50
2019-03-24T05:33:02.696Z,1.60
2019-03-24T05:41:49.531Z,1.80
2019-03-24T05:44:19.934Z,1.90
2019-03-24T05:46:50.429Z,1.80
2019-03-24T05:49:20.803Z,1.80
2019-03-24T05:51:51.390Z,1.90
2019-03-24T05:54:21.953Z,1.80
2019-03-24T05:56:52.618Z,1.90
2019-03-24T05:59:22.865Z,1.90
2019-03-24T06:01:53.231Z,1.80
2019-03-24T06:04:23.705Z,1.70
2019-03-24T06:06:54.170Z,1.70
2019-03-24T06:09:24.658Z,1.60
2019-03-24T06:11:55.109Z,1.50
2019-03-24T06:14:25.494Z,1.50
2019-03-24T06:16:55.810Z,1.60
2019-03-24T06:19:26.334Z,1.50
2019-03-24T06:21:56.863Z,1.50
2019-03-24T06:24:27.696Z,1.50
2019-03-24T06:26:58.274Z,1.50
2019-03-24T06:29:28.824Z,1.50
2019-03-24T06:31:59.336Z,1.50
2019-03-24T06:34:29.854Z,1.60
2019-03-24T06:37:00.298Z,1.70
2019-03-24T06:39:30.810Z,1.80
2019-03-24T06:42:01.403Z,1.90
2019-03-24T06:44:31.806Z,2.00
2019-03-24T06:47:02.217Z,2.10
2019-03-24T06:49:32.679Z,2.20
2019-03-24T06:52:03.080Z,2.30
2019-03-24T06:54:33.518Z,2.50
2019-03-24T06:57:04.102Z,2.50
2019-03-24T06:59:34.760Z,2.60
2019-03-24T07:02:05.266Z,2.70
2019-03-24T07:04:35.531Z,2.80
2019-03-24T07:07:05.959Z,2.80
2019-03-24T07:09:36.354Z,2.90
2019-03-24T07:12:06.836Z,3.00
2019-03-24T07:14:38.304Z,3.10
2019-03-24T07:17:08.829Z,3.20
2019-03-24T07:19:39.203Z,3.30
2019-03-24T07:22:09.612Z,3.40
2019-03-24T07:24:39.967Z,3.50
2019-03-24T07:27:10.384Z,3.60
2019-03-24T07:29:41.265Z,3.80
2019-03-24T07:32:11.812Z,4.00
2019-03-24T07:34:44.261Z,4.30
2019-03-24T07:37:14.610Z,4.50
2019-03-24T07:39:44.914Z,4.80
2019-03-24T07:42:15.301Z,5.10
2019-03-24T07:44:45.773Z,5.30
2019-03-24T07:47:16.663Z,5.40
2019-03-24T07:49:47.051Z,5.50
2019-03-24T07:52:17.347Z,5.60
2019-03-24T07:54:47.635Z,5.60
2019-03-24T07:57:17.975Z,5.60
2019-03-24T07:59:50.172Z,5.60
2019-03-24T08:02:20.451Z,5.60
2019-03-24T08:04:50.997Z,5.70
2019-03-24T08:07:21.594Z,5.80
2019-03-24T08:09:52.187Z,6.00
2019-03-24T08:12:22.776Z,6.10
2019-03-24T08:14:53.501Z,6.20
2019-03-24T08:17:23.991Z,6.20
2019-03-24T08:19:54.437Z,6.30
2019-03-24T08:22:24.981Z,6.40
2019-03-24T08:24:55.663Z,6.60
2019-03-24T08:27:26.343Z,6.70
2019-03-24T08:29:56.977Z,6.90
2019-03-24T08:32:27.535Z,7.20
2019-03-24T08:34:57.875Z,7.30
2019-03-24T08:37:29.635Z,7.60
2019-03-24T08:39:59.973Z,7.80
2019-03-24T08:42:30.518Z,8.10
2019-03-24T08:45:00.985Z,8.30
2019-03-24T08:47:31.639Z,8.50
2019-03-24T08:50:02.171Z,8.70
2019-03-24T08:52:32.601Z,8.80
2019-03-24T08:55:03.332Z,9.10
2019-03-24T08:57:34.348Z,9.40
2019-03-24T09:00:04.714Z,9.40
2019-03-24T09:02:34.947Z,9.40
2019-03-24T09:05:05.522Z,9.30
2019-03-24T09:07:35.955Z,9.20
2019-03-24T09:10:07.855Z,9.20
2019-03-24T09:12:38.450Z,9.10
2019-03-24T09:15:09.530Z,9.30
2019-03-24T09:17:41.275Z,9.30
2019-03-24T09:20:12.335Z,9.20
2019-03-24T09:22:42.835Z,9.30
2019-03-24T09:25:13.347Z,9.40
2019-03-24T09:27:44.143Z,9.20
2019-03-24T09:30:29.718Z,9.20
2019-03-24T09:33:00.090Z,9.00
2019-03-24T09:35:30.842Z,8.90
2019-03-24T09:38:01.610Z,9.00
2019-03-24T09:40:33.991Z,9.20
2019-03-24T09:43:05.698Z,9.10
2019-03-24T09:45:37.364Z,9.00
2019-03-24T09:48:08.706Z,9.00
2019-03-24T09:50:44.697Z,9.30
2019-03-24T09:53:15.261Z,9.50
2019-03-24T09:55:45.661Z,9.70
2019-03-24T09:58:16.057Z,9.60
2019-03-24T10:00:46.527Z,9.60
2019-03-24T10:03:16.858Z,9.40
2019-03-24T10:05:47.462Z,9.30
2019-03-24T10:08:18.508Z,9.30
2019-03-24T10:10:48.930Z,9.40
2019-03-24T10:13:19.353Z,9.40
2019-03-24T10:15:49.866Z,9.40
2019-03-24T10:18:20.351Z,9.50
2019-03-24T10:20:53.851Z,9.50
2019-03-24T10:23:24.476Z,9.30
2019-03-24T10:26:05.144Z,9.30
2019-03-24T10:28:37.133Z,9.40
2019-03-24T10:31:07.702Z,9.70
2019-03-24T10:33:38.159Z,9.70
2019-03-24T10:36:08.701Z,9.70
2019-03-24T10:38:39.754Z,9.70
2019-03-24T10:41:17.194Z,9.80
2019-03-24T10:43:48.016Z,9.70
2019-03-24T10:46:18.832Z,9.80
2019-03-24T10:48:50.117Z,9.80
2019-03-24T11:01:58.094Z,10.10
2019-03-24T11:04:28.508Z,10.10
2019-03-24T11:10:37.339Z,10.10
2019-03-24T11:13:07.767Z,10.40
2019-03-24T11:15:38.157Z,10.60
2019-03-24T11:18:08.522Z,10.80
2019-03-24T11:20:39.010Z,11.00
2019-03-24T11:23:09.545Z,11.50
2019-03-24T11:25:40.351Z,11.90
2019-03-24T11:28:10.877Z,12.20
2019-03-24T11:30:41.259Z,12.60
2019-03-24T11:33:11.902Z,12.80
2019-03-24T11:35:42.387Z,12.70
2019-03-24T11:41:38.521Z,12.50
2019-03-24T11:44:09.482Z,12.40
2019-03-24T11:46:39.932Z,12.50
2019-03-24T11:49:19.788Z,12.60
2019-03-24T11:55:51.955Z,12.60
2019-03-24T12:10:02.521Z,12.80
2019-03-24T12:12:32.889Z,12.70
2019-03-24T12:15:05.320Z,12.20
2019-03-24T12:17:35.876Z,12.30
2019-03-24T12:20:08.283Z,12.20
2019-03-24T12:22:38.955Z,12.00
2019-03-24T12:25:09.669Z,11.90
2019-03-24T12:27:40.183Z,12.00
2019-03-24T12:30:11.214Z,11.90
2019-03-24T12:32:41.761Z,11.80
2019-03-24T12:35:12.907Z,11.80
2019-03-24T12:37:43.573Z,11.50
2019-03-24T12:40:16.049Z,11.20
2019-03-24T12:42:46.558Z,11.20
2019-03-24T12:45:17.236Z,11.10
2019-03-24T12:47:48.125Z,11.20
2019-03-24T12:50:18.659Z,11.40
2019-03-24T12:52:49.100Z,11.40
2019-03-24T12:55:19.599Z,11.60
2019-03-24T12:57:50.085Z,11.90
2019-03-24T13:00:34.781Z,12.20
2019-03-24T13:03:05.439Z,12.40
2019-03-24T13:05:36.205Z,12.70
2019-03-24T13:08:17.391Z,12.70
2019-03-24T13:10:48.183Z,12.80
2019-03-24T13:13:18.567Z,12.80
2019-03-24T13:15:49.174Z,12.90
2019-03-24T13:18:19.748Z,12.80
2019-03-24T13:20:50.150Z,12.80
2019-03-24T13:23:20.559Z,12.80
2019-03-24T13:25:50.955Z,13.20
2019-03-24T13:28:21.401Z,13.20
2019-03-24T13:30:51.899Z,13.30
2019-03-24T13:33:22.413Z,13.50
2019-03-24T13:36:05.396Z,13.30
2019-03-24T13:38:35.995Z,13.40
2019-03-24T13:41:06.975Z,13.60
2019-03-24T13:43:37.429Z,13.70
2019-03-24T13:46:07.795Z,14.00
2019-03-24T13:48:38.332Z,13.60
2019-03-24T13:51:09.335Z,13.40
2019-03-24T13:53:39.865Z,13.20
2019-03-24T13:56:10.461Z,13.60
2019-03-24T13:58:41.150Z,13.50
2019-03-24T14:01:13.120Z,13.70
2019-03-24T14:03:43.401Z,13.60
2019-03-24T14:06:13.823Z,13.60
2019-03-24T14:08:44.262Z,13.90
2019-03-24T14:11:14.744Z,13.60
2019-03-24T14:13:45.195Z,13.90
2019-03-24T14:16:15.627Z,13.60
2019-03-24T14:18:46.083Z,13.50
2019-03-24T14:21:16.670Z,13.40
2019-03-24T14:23:47.171Z,13.70
2019-03-24T14:26:17.633Z,13.90
2019-03-24T14:28:48.322Z,14.20
2019-03-24T14:31:18.703Z,14.00
2019-03-24T14:33:49.315Z,14.00
2019-03-24T14:36:19.858Z,14.30
2019-03-24T14:38:50.302Z,14.40
2019-03-24T14:41:20.766Z,14.10
2019-03-24T14:43:52.108Z,14.00
2019-03-24T14:46:22.876Z,13.70
2019-03-24T14:48:53.262Z,13.60
2019-03-24T14:51:23.691Z,13.70
2019-03-24T14:53:54.922Z,13.90
2019-03-24T14:56:25.476Z,13.80
2019-03-24T14:58:56.130Z,13.50
2019-03-24T15:01:27.540Z,13.50
2019-03-24T15:03:58.092Z,13.50
2019-03-24T15:06:28.774Z,13.80
2019-03-24T15:12:31.794Z,13.80
2019-03-24T15:15:02.291Z,13.60
2019-03-24T15:17:32.868Z,13.60
2019-03-24T15:20:03.501Z,13.70
2019-03-24T15:22:33.976Z,14.10
2019-03-24T15:25:04.334Z,13.90
2019-03-24T15:27:37.107Z,13.50
2019-03-24T15:30:07.848Z,13.40
2019-03-24T15:32:38.266Z,13.70
2019-03-24T15:35:09.100Z,13.90
2019-03-24T15:37:39.437Z,13.90
2019-03-24T15:40:10.069Z,13.50
2019-03-24T15:42:40.608Z,13.30
2019-03-24T15:45:11.337Z,13.00
2019-03-24T15:47:41.952Z,13.20
2019-03-24T15:50:12.692Z,13.30
2019-03-24T15:52:43.118Z,13.40
2019-03-24T15:55:13.870Z,13.70
2019-03-24T15:57:44.906Z,13.60
2019-03-24T16:00:17.309Z,13.30
2019-03-24T16:02:47.778Z,13.20
2019-03-24T16:05:18.342Z,13.30
2019-03-24T16:07:48.834Z,13.10
2019-03-24T16:10:19.411Z,13.10
2019-03-24T16:12:50.000Z,12.90
2019-03-24T16:15:20.455Z,12.70
2019-03-24T16:17:52.023Z,12.50
2019-03-24T16:20:23.096Z,12.40
2019-03-24T16:22:53.467Z,12.40
2019-03-24T16:25:24.002Z,12.20
2019-03-24T16:27:54.740Z,12.20
2019-03-24T16:30:25.449Z,12.30
2019-03-24T16:32:56.063Z,12.00
2019-03-24T16:35:28.389Z,12.00
2019-03-24T16:37:59.049Z,12.00
2019-03-24T16:40:29.755Z,11.90
2019-03-24T16:43:00.892Z,11.70
2019-03-24T16:45:33.175Z,11.50
2019-03-24T16:48:04.681Z,11.40
2019-03-24T16:50:37.502Z,11.30
2019-03-24T16:53:08.144Z,11.10
2019-03-24T16:55:38.716Z,10.90
2019-03-24T16:58:09.271Z,10.70
2019-03-24T17:00:39.729Z,10.60
2019-03-24T17:03:10.461Z,10.60
2019-03-24T17:05:41.134Z,10.40
2019-03-24T17:08:11.829Z,10.20
2019-03-24T17:10:42.779Z,10.10
2019-03-24T17:13:26.643Z,10.00
2019-03-24T17:15:59.641Z,9.90
2019-03-24T17:18:30.487Z,9.80
2019-03-24T17:21:02.474Z,9.70
2019-03-24T17:23:33.204Z,9.60
2019-03-24T17:26:04.451Z,9.50
2019-03-24T17:28:34.761Z,9.40
2019-03-24T17:31:05.043Z,9.30
2019-03-24T17:33:35.464Z,9.20
2019-03-24T17:36:06.391Z,9.20
2019-03-24T17:42:09.267Z,9.10
2019-03-24T17:44:40.245Z,9.00
2019-03-24T17:47:10.661Z,8.90
2019-03-24T17:49:41.141Z,8.80
2019-03-24T17:52:11.375Z,8.70
2019-03-24T17:54:41.706Z,8.70
2019-03-24T17:57:12.028Z,8.60
2019-03-24T17:59:42.873Z,8.60
2019-03-24T18:02:14.492Z,8.50
2019-03-24T18:04:45.194Z,8.40
2019-03-24T18:07:16.150Z,8.40
2019-03-24T18:09:46.708Z,8.30
2019-03-24T18:12:17.146Z,8.20
2019-03-24T18:14:47.633Z,8.10
2019-03-24T18:17:19.909Z,8.10
2019-03-24T18:19:50.311Z,8.10
2019-03-24T18:26:41.038Z,8.00
2019-03-24T18:29:11.578Z,7.90
2019-03-24T18:31:41.905Z,7.80
2019-03-24T18:34:12.227Z,7.70
2019-03-24T18:36:42.841Z,7.60
2019-03-24T18:39:13.347Z,7.50
2019-03-24T18:41:44.167Z,7.40
2019-03-24T18:44:14.707Z,7.40
2019-03-24T18:46:46.501Z,7.40
2019-03-24T18:49:16.878Z,7.40
2019-03-24T18:51:47.288Z,7.40
2019-03-24T18:54:17.741Z,7.30
2019-03-24T18:56:47.987Z,7.30
2019-03-24T18:59:18.366Z,7.20
2019-03-24T19:01:48.783Z,7.10
2019-03-24T19:04:19.395Z,7.00
2019-03-24T19:06:49.769Z,6.90
2019-03-24T19:09:20.259Z,6.90
2019-03-24T19:11:51.762Z,6.80
2019-03-24T19:14:24.216Z,6.70
2019-03-24T19:16:54.597Z,6.60
2019-03-24T19:19:25.146Z,6.50
2019-03-24T19:21:55.564Z,6.60
2019-03-24T19:24:26.078Z,6.60
2019-03-24T19:26:56.424Z,6.50
2019-03-24T19:29:26.840Z,6.40
2019-03-24T19:31:57.164Z,6.50
2019-03-24T19:34:27.481Z,6.40
2019-03-24T19:36:58.668Z,6.40
2019-03-24T19:39:30.016Z,6.30
2019-03-24T19:42:00.498Z,6.20
2019-03-24T19:44:30.996Z,6.10
2019-03-24T19:47:01.560Z,6.10
2019-03-24T19:49:39.382Z,6.00
2019-03-24T19:52:09.909Z,6.00
2019-03-24T19:54:40.250Z,6.00
2019-03-24T19:57:10.700Z,5.90
2019-03-24T19:59:41.296Z,5.90
2019-03-24T20:02:11.717Z,5.90
2019-03-24T20:04:42.028Z,5.90
2019-03-24T20:07:12.330Z,5.80
2019-03-24T20:09:42.810Z,5.80
2019-03-24T20:12:13.199Z,5.80
2019-03-24T20:14:43.528Z,5.70
2019-03-24T20:17:15.853Z,5.60
2019-03-24T20:19:46.050Z,5.60
2019-03-24T20:22:16.314Z,5.60
2019-03-24T20:24:46.557Z,5.50
2019-03-24T20:27:16.971Z,5.50
2019-03-24T20:29:47.513Z,5.50
2019-03-24T20:32:17.873Z,5.50
2019-03-24T20:34:48.261Z,5.40
2019-03-24T20:37:18.758Z,5.40
2019-03-24T20:43:30.534Z,5.40
2019-03-24T20:46:00.797Z,5.30
2019-03-24T20:48:31.179Z,5.20
2019-03-24T20:51:01.513Z,5.20
2019-03-24T20:53:31.903Z,5.20
2019-03-24T20:56:02.193Z,5.20
2019-03-24T20:58:32.476Z,5.10
2019-03-24T21:01:02.887Z,5.10
2019-03-24T21:03:33.240Z,5.20
2019-03-24T21:06:03.599Z,5.10
2019-03-24T21:08:33.943Z,5.10
2019-03-24T21:11:04.345Z,5.10
2019-03-24T21:13:34.616Z,5.10
2019-03-24T21:16:05.391Z,5.10
2019-03-24T21:18:35.828Z,5.10
2019-03-24T21:21:06.111Z,5.00
2019-03-24T21:23:36.683Z,5.00
2019-03-24T21:26:07.005Z,4.90
2019-03-24T21:28:37.494Z,4.90
2019-03-24T21:31:07.970Z,4.90
2019-03-24T21:33:38.551Z,4.90
2019-03-24T21:36:09.349Z,4.80
2019-03-24T21:45:44.674Z,4.80
2019-03-24T21:48:15.287Z,4.80
2019-03-24T21:50:45.744Z,4.80
2019-03-24T21:53:17.965Z,4.80
2019-03-24T21:55:48.348Z,4.80
2019-03-24T21:58:19.197Z,4.70
2019-03-24T22:00:49.529Z,4.70
2019-03-24T22:03:19.823Z,4.70
2019-03-24T22:05:50.933Z,4.70
2019-03-24T22:08:21.191Z,4.70
2019-03-24T22:10:51.508Z,4.70
2019-03-24T22:13:21.964Z,4.70
2019-03-24T22:15:52.318Z,4.70
2019-03-24T22:18:22.819Z,4.70
2019-03-24T22:20:53.162Z,4.70
2019-03-24T22:23:23.535Z,4.60
2019-03-24T22:25:53.910Z,4.60
2019-03-24T22:28:24.183Z,4.60
2019-03-24T22:30:54.648Z,4.60
2019-03-24T22:33:25.133Z,4.60
2019-03-24T22:35:55.535Z,4.60
2019-03-24T22:42:36.593Z,4.50
2019-03-24T22:45:07.804Z,4.60
2019-03-24T22:47:38.275Z,4.60
2019-03-24T22:50:09.009Z,4.60
2019-03-24T22:52:39.277Z,4.60
2019-03-24T22:58:41.920Z,4.60
2019-03-24T23:01:13.210Z,4.50
2019-03-24T23:03:43.837Z,4.50
2019-03-24T23:06:15.447Z,4.60
2019-03-24T23:08:45.933Z,4.60
2019-03-24T23:11:16.410Z,4.60
2019-03-24T23:13:46.864Z,4.60
2019-03-24T23:16:17.134Z,4.60
2019-03-24T23:18:47.533Z,4.70
2019-03-24T23:21:20.207Z,4.70
2019-03-24T23:23:50.700Z,4.70
2019-03-24T23:26:21.221Z,4.80
2019-03-24T23:28:51.720Z,4.90
2019-03-24T23:31:22.181Z,5.10
2019-03-24T23:33:52.729Z,5.10
2019-03-24T23:36:23.161Z,5.10
2019-03-24T23:38:53.488Z,5.20
2019-03-24T23:41:23.848Z,5.20
2019-03-24T23:43:54.118Z,5.20
2019-03-24T23:46:24.482Z,5.20
2019-03-24T23:48:55.394Z,5.30
2019-03-24T23:51:25.769Z,5.30
2019-03-24T23:53:57.380Z,5.40
2019-03-24T23:56:27.606Z,5.40
2019-03-24T23:58:57.908Z,5.50
